sensor_id;sensor_type;location;lat;lon;timestamp;pressure;altitude;pressure_sealevel;temperature;humidity
58534;BME280;44109;52.398;7.024;2022-08-07T00:02:22;102449.81;;;13.30;80.43
58534;BME280;44109;52.398;7.024;2022-08-07T00:04:49;102447.63;;;13.24;80.50
58534;BME280;44109;52.398;7.024;2022-08-07T00:07:16;102445.19;;;13.22;80.74
58534;BME280;44109;52.398;7.024;2022-08-07T00:09:44;102451.41;;;13.19;80.98
58534;BME280;44109;52.398;7.024;2022-08-07T00:12:12;102441.75;;;13.16;81.04
58534;BME280;44109;52.398;7.024;2022-08-07T00:14:39;102446.06;;;13.14;81.21
58534;BME280;44109;52.398;7.024;2022-08-07T00:17:08;102445.59;;;13.12;81.32
58534;BME280;44109;52.398;7.024;2022-08-07T00:19:36;102446.75;;;13.11;81.51
58534;BME280;44109;52.398;7.024;2022-08-07T00:22:03;102437.59;;;13.10;81.27
58534;BME280;44109;52.398;7.024;2022-08-07T00:24:31;102444.66;;;13.08;81.37
58534;BME280;44109;52.398;7.024;2022-08-07T00:27:00;102440.97;;;13.04;81.89
58534;BME280;44109;52.398;7.024;2022-08-07T00:29:28;102444.06;;;13.02;82.07
58534;BME280;44109;52.398;7.024;2022-08-07T00:31:55;102439.53;;;12.98;82.18
58534;BME280;44109;52.398;7.024;2022-08-07T00:34:26;102445.47;;;12.96;82.16
58534;BME280;44109;52.398;7.024;2022-08-07T00:36:54;102438.28;;;12.95;82.09
58534;BME280;44109;52.398;7.024;2022-08-07T00:39:22;102442.19;;;12.94;82.06
58534;BME280;44109;52.398;7.024;2022-08-07T00:41:51;102436.53;;;12.90;82.20
58534;BME280;44109;52.398;7.024;2022-08-07T00:44:20;102432.81;;;12.86;82.50
58534;BME280;44109;52.398;7.024;2022-08-07T00:46:48;102434.44;;;12.87;82.59
58534;BME280;44109;52.398;7.024;2022-08-07T00:49:16;102422.72;;;12.82;82.87
58534;BME280;44109;52.398;7.024;2022-08-07T00:51:45;102425.00;;;12.80;83.13
58534;BME280;44109;52.398;7.024;2022-08-07T00:54:13;102425.00;;;12.80;83.06
58534;BME280;44109;52.398;7.024;2022-08-07T00:56:41;102422.09;;;12.76;83.27
58534;BME280;44109;52.398;7.024;2022-08-07T00:59:09;102426.03;;;12.75;82.98
58534;BME280;44109;52.398;7.024;2022-08-07T01:01:37;102421.19;;;12.72;82.90
58534;BME280;44109;52.398;7.024;2022-08-07T01:04:05;102425.91;;;12.72;83.27
58534;BME280;44109;52.398;7.024;2022-08-07T01:06:34;102417.47;;;12.68;83.79
58534;BME280;44109;52.398;7.024;2022-08-07T01:09:03;102425.09;;;12.71;83.94
58534;BME280;44109;52.398;7.024;2022-08-07T01:11:31;102422.22;;;12.67;83.88
58534;BME280;44109;52.398;7.024;2022-08-07T01:13:59;102419.31;;;12.64;83.46
58534;BME280;44109;52.398;7.024;2022-08-07T01:16:27;102420.66;;;12.58;83.86
58534;BME280;44109;52.398;7.024;2022-08-07T01:18:55;102429.94;;;12.62;83.52
58534;BME280;44109;52.398;7.024;2022-08-07T01:21:24;102429.94;;;12.62;83.60
58534;BME280;44109;52.398;7.024;2022-08-07T01:23:53;102429.00;;;12.58;83.22
58534;BME280;44109;52.398;7.024;2022-08-07T01:26:23;102418.91;;;12.53;83.57
58534;BME280;44109;52.398;7.024;2022-08-07T01:28:52;102426.13;;;12.54;83.31
58534;BME280;44109;52.398;7.024;2022-08-07T01:31:21;102418.31;;;12.48;83.23
58534;BME280;44109;52.398;7.024;2022-08-07T01:33:53;102417.38;;;12.43;82.98
58534;BME280;44109;52.398;7.024;2022-08-07T01:36:21;102420.16;;;12.43;83.16
58534;BME280;44109;52.398;7.024;2022-08-07T01:38:50;102415.31;;;12.40;83.50
58534;BME280;44109;52.398;7.024;2022-08-07T01:41:18;102415.63;;;12.39;83.61
58534;BME280;44109;52.398;7.024;2022-08-07T01:43:47;102411.56;;;12.36;83.80
58534;BME280;44109;52.398;7.024;2022-08-07T01:46:16;102417.81;;;12.33;83.86
58534;BME280;44109;52.398;7.024;2022-08-07T01:48:47;102420.59;;;12.33;83.64
58534;BME280;44109;52.398;7.024;2022-08-07T01:51:18;102417.69;;;12.30;84.00
58534;BME280;44109;52.398;7.024;2022-08-07T01:53:51;102413.63;;;12.27;83.80
58534;BME280;44109;52.398;7.024;2022-08-07T01:56:25;102410.84;;;12.27;83.79
58534;BME280;44109;52.398;7.024;2022-08-07T01:58:58;102413.13;;;12.25;83.71
58534;BME280;44109;52.398;7.024;2022-08-07T02:01:34;102409.53;;;12.25;84.13
58534;BME280;44109;52.398;7.024;2022-08-07T02:04:12;102408.28;;;12.22;83.84
58534;BME280;44109;52.398;7.024;2022-08-07T02:06:44;102403.38;;;12.19;83.92
58534;BME280;44109;52.398;7.024;2022-08-07T02:09:15;102400.59;;;12.19;84.19
58534;BME280;44109;52.398;7.024;2022-08-07T02:11:47;102398.19;;;12.17;84.28
58534;BME280;44109;52.398;7.024;2022-08-07T02:14:18;102390.16;;;12.16;84.37
58534;BME280;44109;52.398;7.024;2022-08-07T02:16:50;102388.53;;;12.15;84.16
58534;BME280;44109;52.398;7.024;2022-08-07T02:19:20;102389.91;;;12.09;84.64
58534;BME280;44109;52.398;7.024;2022-08-07T02:21:51;102394.31;;;12.10;84.06
58534;BME280;44109;52.398;7.024;2022-08-07T02:24:24;102388.25;;;12.08;84.21
58534;BME280;44109;52.398;7.024;2022-08-07T02:26:53;102388.97;;;12.05;84.03
58534;BME280;44109;52.398;7.024;2022-08-07T02:29:20;102386.50;;;12.03;84.45
58534;BME280;44109;52.398;7.024;2022-08-07T02:31:49;102394.84;;;12.03;84.08
58534;BME280;44109;52.398;7.024;2022-08-07T02:34:18;102384.75;;;11.99;84.05
58534;BME280;44109;52.398;7.024;2022-08-07T02:36:46;102386.25;;;11.96;84.09
58534;BME280;44109;52.398;7.024;2022-08-07T02:39:17;102385.44;;;11.96;84.33
58534;BME280;44109;52.398;7.024;2022-08-07T02:41:48;102378.44;;;11.89;84.47
58534;BME280;44109;52.398;7.024;2022-08-07T02:44:17;102383.53;;;11.87;84.32
58534;BME280;44109;52.398;7.024;2022-08-07T02:46:47;102389.91;;;11.88;84.50
58534;BME280;44109;52.398;7.024;2022-08-07T02:49:15;102387.50;;;11.86;84.35
58534;BME280;44109;52.398;7.024;2022-08-07T02:51:43;102379.81;;;11.83;84.37
58534;BME280;44109;52.398;7.024;2022-08-07T02:54:14;102383.75;;;11.82;84.31
58534;BME280;44109;52.398;7.024;2022-08-07T02:56:45;102377.66;;;11.80;84.65
58534;BME280;44109;52.398;7.024;2022-08-07T02:59:18;102384.88;;;11.81;84.69
58534;BME280;44109;52.398;7.024;2022-08-07T03:01:49;102383.59;;;11.79;84.82
58534;BME280;44109;52.398;7.024;2022-08-07T03:04:18;102383.94;;;11.77;84.57
58534;BME280;44109;52.398;7.024;2022-08-07T03:06:47;102378.38;;;11.77;84.85
58534;BME280;44109;52.398;7.024;2022-08-07T03:09:17;102379.19;;;11.78;85.09
58534;BME280;44109;52.398;7.024;2022-08-07T03:11:49;102372.31;;;11.75;85.12
58534;BME280;44109;52.398;7.024;2022-08-07T03:14:18;102367.47;;;11.72;85.02
58534;BME280;44109;52.398;7.024;2022-08-07T03:16:48;102373.34;;;11.71;84.71
58534;BME280;44109;52.398;7.024;2022-08-07T03:19:15;102376.13;;;11.71;84.97
58534;BME280;44109;52.398;7.024;2022-08-07T03:21:43;102371.38;;;11.71;84.78
58534;BME280;44109;52.398;7.024;2022-08-07T03:24:10;102371.72;;;11.69;85.25
58534;BME280;44109;52.398;7.024;2022-08-07T03:26:38;102377.28;;;11.69;85.20
58534;BME280;44109;52.398;7.024;2022-08-07T03:29:10;102384.31;;;11.67;84.96
58534;BME280;44109;52.398;7.024;2022-08-07T03:31:40;102378.28;;;11.65;85.27
58534;BME280;44109;52.398;7.024;2022-08-07T03:34:11;102381.06;;;11.65;84.96
58534;BME280;44109;52.398;7.024;2022-08-07T03:36:43;102386.97;;;11.63;84.84
58534;BME280;44109;52.398;7.024;2022-08-07T03:39:12;102390.44;;;11.60;85.00
58534;BME280;44109;52.398;7.024;2022-08-07T03:41:43;102387.19;;;11.58;84.86
58534;BME280;44109;52.398;7.024;2022-08-07T03:44:13;102386.34;;;11.58;85.05
58534;BME280;44109;52.398;7.024;2022-08-07T03:46:41;102379.16;;;11.57;85.28
58534;BME280;44109;52.398;7.024;2022-08-07T03:49:09;102388.66;;;11.56;84.78
58534;BME280;44109;52.398;7.024;2022-08-07T03:51:37;102388.19;;;11.54;84.86
58534;BME280;44109;52.398;7.024;2022-08-07T03:54:05;102389.31;;;11.53;84.92
58534;BME280;44109;52.398;7.024;2022-08-07T03:56:33;102386.44;;;11.49;85.11
58534;BME280;44109;52.398;7.024;2022-08-07T03:59:06;102394.41;;;11.51;85.18
58534;BME280;44109;52.398;7.024;2022-08-07T04:01:39;102397.19;;;11.51;85.02
58534;BME280;44109;52.398;7.024;2022-08-07T04:04:08;102391.66;;;11.51;85.69
58534;BME280;44109;52.398;7.024;2022-08-07T04:06:37;102393.25;;;11.52;85.81
58534;BME280;44109;52.398;7.024;2022-08-07T04:09:06;102385.13;;;11.47;85.18
58534;BME280;44109;52.398;7.024;2022-08-07T04:11:34;102386.09;;;11.51;85.27
58534;BME280;44109;52.398;7.024;2022-08-07T04:14:03;102384.78;;;11.48;85.31
58534;BME280;44109;52.398;7.024;2022-08-07T04:16:31;102396.03;;;11.52;85.49
58534;BME280;44109;52.398;7.024;2022-08-07T04:19:01;102396.53;;;11.54;85.64
58534;BME280;44109;52.398;7.024;2022-08-07T04:21:29;102393.75;;;11.54;85.46
58534;BME280;44109;52.398;7.024;2022-08-07T04:23:57;102385.41;;;11.54;85.77
58534;BME280;44109;52.398;7.024;2022-08-07T04:26:26;102389.81;;;11.55;85.85
58534;BME280;44109;52.398;7.024;2022-08-07T04:28:53;102390.97;;;11.54;85.90
58534;BME280;44109;52.398;7.024;2022-08-07T04:31:22;102394.50;;;11.63;86.44
58534;BME280;44109;52.398;7.024;2022-08-07T04:33:50;102392.66;;;11.67;86.40
58534;BME280;44109;52.398;7.024;2022-08-07T04:36:20;102393.59;;;11.71;86.57
58534;BME280;44109;52.398;7.024;2022-08-07T04:38:47;102388.53;;;11.73;86.78
58534;BME280;44109;52.398;7.024;2022-08-07T04:41:15;102398.16;;;11.76;86.71
58534;BME280;44109;52.398;7.024;2022-08-07T04:43:43;102391.63;;;11.72;87.35
58534;BME280;44109;52.398;7.024;2022-08-07T04:46:16;102396.06;;;11.73;87.75
58534;BME280;44109;52.398;7.024;2022-08-07T04:48:57;102404.66;;;11.80;87.74
58534;BME280;44109;52.398;7.024;2022-08-07T04:51:40;102402.38;;;11.82;88.46
58534;BME280;44109;52.398;7.024;2022-08-07T04:54:23;102402.13;;;11.96;87.77
58534;BME280;44109;52.398;7.024;2022-08-07T04:57:02;102401.72;;;12.06;88.06
58534;BME280;44109;52.398;7.024;2022-08-07T04:59:45;102406.59;;;12.09;88.20
58534;BME280;44109;52.398;7.024;2022-08-07T05:02:23;102414.19;;;12.00;88.96
58534;BME280;44109;52.398;7.024;2022-08-07T05:04:59;102409.69;;;12.07;88.82
58534;BME280;44109;52.398;7.024;2022-08-07T05:07:37;102413.34;;;12.20;89.57
58534;BME280;44109;52.398;7.024;2022-08-07T05:10:11;102416.50;;;12.31;89.61
58534;BME280;44109;52.398;7.024;2022-08-07T05:12:47;102420.06;;;12.40;89.23
58534;BME280;44109;52.398;7.024;2022-08-07T05:15:28;102413.25;;;12.62;89.93
58534;BME280;44109;52.398;7.024;2022-08-07T05:18:02;102417.25;;;12.85;89.05
58534;BME280;44109;52.398;7.024;2022-08-07T05:20:36;102412.16;;;13.00;87.41
58534;BME280;44109;52.398;7.024;2022-08-07T05:23:11;102422.16;;;13.25;87.44
58534;BME280;44109;52.398;7.024;2022-08-07T05:25:43;102419.38;;;13.25;86.79
58534;BME280;44109;52.398;7.024;2022-08-07T05:28:13;102420.63;;;13.64;87.11
58534;BME280;44109;52.398;7.024;2022-08-07T05:30:43;102425.00;;;13.90;86.33
58534;BME280;44109;52.398;7.024;2022-08-07T05:33:13;102425.16;;;14.09;85.92
58534;BME280;44109;52.398;7.024;2022-08-07T05:35:43;102423.22;;;14.26;84.33
58534;BME280;44109;52.398;7.024;2022-08-07T05:38:13;102429.53;;;14.51;83.68
58534;BME280;44109;52.398;7.024;2022-08-07T05:40:42;102438.16;;;14.74;83.30
58534;BME280;44109;52.398;7.024;2022-08-07T05:43:10;102436.69;;;14.64;82.01
58534;BME280;44109;52.398;7.024;2022-08-07T05:45:40;102425.91;;;15.10;81.88
58534;BME280;44109;52.398;7.024;2022-08-07T05:48:09;102424.66;;;15.58;82.01
58534;BME280;44109;52.398;7.024;2022-08-07T05:50:37;102422.31;;;15.95;80.88
58534;BME280;44109;52.398;7.024;2022-08-07T05:53:06;102425.28;;;16.22;80.94
58534;BME280;44109;52.398;7.024;2022-08-07T05:55:35;102425.41;;;16.71;81.26
58534;BME280;44109;52.398;7.024;2022-08-07T05:58:04;102424.25;;;16.95;76.31
58534;BME280;44109;52.398;7.024;2022-08-07T06:00:33;102427.28;;;17.59;80.66
58534;BME280;44109;52.398;7.024;2022-08-07T06:03:04;102432.16;;;17.92;76.74
58534;BME280;44109;52.398;7.024;2022-08-07T06:05:35;102441.69;;;18.14;69.69
58534;BME280;44109;52.398;7.024;2022-08-07T06:08:03;102438.88;;;17.84;67.88
58534;BME280;44109;52.398;7.024;2022-08-07T06:10:32;102440.81;;;18.44;76.68
58534;BME280;44109;52.398;7.024;2022-08-07T06:13:01;102444.78;;;19.21;75.78
58534;BME280;44109;52.398;7.024;2022-08-07T06:15:33;102435.88;;;19.12;68.06
58534;BME280;44109;52.398;7.024;2022-08-07T06:18:02;102430.50;;;20.10;77.42
58534;BME280;44109;52.398;7.024;2022-08-07T06:20:30;102427.09;;;21.02;79.96
58534;BME280;44109;52.398;7.024;2022-08-07T06:23:02;102421.00;;;21.64;75.89
58534;BME280;44109;52.398;7.024;2022-08-07T06:25:31;102418.94;;;21.86;69.94
58534;BME280;44109;52.398;7.024;2022-08-07T06:28:05;102417.53;;;22.34;68.58
58534;BME280;44109;52.398;7.024;2022-08-07T06:30:34;102435.41;;;22.79;72.07
58534;BME280;44109;52.398;7.024;2022-08-07T06:33:03;102424.06;;;22.86;61.79
58534;BME280;44109;52.398;7.024;2022-08-07T06:35:34;102420.19;;;21.71;61.00
58534;BME280;44109;52.398;7.024;2022-08-07T06:38:02;102428.34;;;22.49;70.14
58534;BME280;44109;52.398;7.024;2022-08-07T06:40:36;102434.41;;;23.11;65.18
58534;BME280;44109;52.398;7.024;2022-08-07T06:43:11;102434.19;;;23.77;64.90
58534;BME280;44109;52.398;7.024;2022-08-07T06:45:41;102428.38;;;24.22;62.78
58534;BME280;44109;52.398;7.024;2022-08-07T06:48:08;102428.66;;;24.31;53.98
58534;BME280;44109;52.398;7.024;2022-08-07T06:50:38;102425.34;;;24.05;52.28
58534;BME280;44109;52.398;7.024;2022-08-07T06:53:08;102419.06;;;23.49;48.54
58534;BME280;44109;52.398;7.024;2022-08-07T06:55:37;102417.69;;;23.27;52.53
58534;BME280;44109;52.398;7.024;2022-08-07T06:58:10;102428.88;;;23.79;52.01
58534;BME280;44109;52.398;7.024;2022-08-07T07:00:40;102420.56;;;22.64;55.28
58534;BME280;44109;52.398;7.024;2022-08-07T07:03:10;102422.28;;;23.51;52.49
58534;BME280;44109;52.398;7.024;2022-08-07T07:05:39;102431.88;;;24.87;56.48
58534;BME280;44109;52.398;7.024;2022-08-07T07:08:07;102417.81;;;25.50;51.53
58534;BME280;44109;52.398;7.024;2022-08-07T07:10:37;102429.59;;;25.72;49.84
58534;BME280;44109;52.398;7.024;2022-08-07T07:13:10;102418.34;;;26.25;44.62
58534;BME280;44109;52.398;7.024;2022-08-07T07:15:45;102422.94;;;26.91;45.04
58534;BME280;44109;52.398;7.024;2022-08-07T07:18:18;102417.78;;;26.86;42.80
58534;BME280;44109;52.398;7.024;2022-08-07T07:20:54;102410.81;;;27.20;38.64
58534;BME280;44109;52.398;7.024;2022-08-07T07:23:24;102414.09;;;26.53;41.58
58534;BME280;44109;52.398;7.024;2022-08-07T07:25:59;102418.09;;;26.55;42.13
58534;BME280;44109;52.398;7.024;2022-08-07T07:28:34;102418.25;;;26.12;39.04
58534;BME280;44109;52.398;7.024;2022-08-07T07:31:09;102413.34;;;26.13;41.63
58534;BME280;44109;52.398;7.024;2022-08-07T07:33:42;102428.34;;;26.33;41.76
58534;BME280;44109;52.398;7.024;2022-08-07T07:36:12;102421.13;;;26.97;40.03
58534;BME280;44109;52.398;7.024;2022-08-07T07:38:41;102431.84;;;27.71;39.05
58534;BME280;44109;52.398;7.024;2022-08-07T07:41:10;102423.47;;;27.19;39.26
58534;BME280;44109;52.398;7.024;2022-08-07T07:43:43;102420.63;;;27.35;38.94
58534;BME280;44109;52.398;7.024;2022-08-07T07:46:13;102434.22;;;25.19;42.55
58534;BME280;44109;52.398;7.024;2022-08-07T07:48:41;102414.31;;;25.43;42.72
58534;BME280;44109;52.398;7.024;2022-08-07T07:51:13;102415.28;;;26.36;41.10
58534;BME280;44109;52.398;7.024;2022-08-07T07:53:45;102414.94;;;25.74;42.41
58534;BME280;44109;52.398;7.024;2022-08-07T07:56:14;102410.50;;;26.13;41.36
58534;BME280;44109;52.398;7.024;2022-08-07T07:58:46;102414.47;;;25.99;41.45
58534;BME280;44109;52.398;7.024;2022-08-07T08:01:16;102407.13;;;25.58;41.09
58534;BME280;44109;52.398;7.024;2022-08-07T08:03:46;102411.34;;;23.53;44.65
58534;BME280;44109;52.398;7.024;2022-08-07T08:06:16;102407.47;;;25.40;42.46
58534;BME280;44109;52.398;7.024;2022-08-07T08:08:45;102415.44;;;25.49;43.15
58534;BME280;44109;52.398;7.024;2022-08-07T08:11:15;102412.59;;;26.48;42.64
58534;BME280;44109;52.398;7.024;2022-08-07T08:13:46;102407.97;;;27.03;39.80
58534;BME280;44109;52.398;7.024;2022-08-07T08:16:17;102400.41;;;26.28;40.83
58534;BME280;44109;52.398;7.024;2022-08-07T08:18:47;102406.69;;;27.37;37.53
58534;BME280;44109;52.398;7.024;2022-08-07T08:21:19;102397.72;;;24.94;40.61
58534;BME280;44109;52.398;7.024;2022-08-07T08:24:06;102412.13;;;25.30;42.89
58534;BME280;44109;52.398;7.024;2022-08-07T08:27:08;102405.63;;;23.95;43.83
58534;BME280;44109;52.398;7.024;2022-08-07T08:29:49;102400.19;;;22.94;45.62
58534;BME280;44109;52.398;7.024;2022-08-07T08:32:20;102398.81;;;23.10;45.26
58534;BME280;44109;52.398;7.024;2022-08-07T08:34:53;102394.38;;;23.88;43.19
58534;BME280;44109;52.398;7.024;2022-08-07T08:37:24;102390.56;;;24.59;44.82
58534;BME280;44109;52.398;7.024;2022-08-07T08:39:54;102384.41;;;25.78;41.50
58534;BME280;44109;52.398;7.024;2022-08-07T08:42:26;102380.97;;;26.06;43.30
58534;BME280;44109;52.398;7.024;2022-08-07T08:45:09;102379.44;;;26.38;40.41
58534;BME280;44109;52.398;7.024;2022-08-07T08:47:45;102376.56;;;25.42;40.34
58534;BME280;44109;52.398;7.024;2022-08-07T08:50:25;102373.75;;;24.95;40.69
58534;BME280;44109;52.398;7.024;2022-08-07T08:53:11;102380.44;;;24.00;43.13
58534;BME280;44109;52.398;7.024;2022-08-07T08:55:47;102377.22;;;24.83;42.63
58534;BME280;44109;52.398;7.024;2022-08-07T08:58:35;102377.44;;;22.53;44.76
58534;BME280;44109;52.398;7.024;2022-08-07T09:01:24;102369.91;;;22.84;43.13
58534;BME280;44109;52.398;7.024;2022-08-07T09:04:06;102374.59;;;23.46;43.65
58534;BME280;44109;52.398;7.024;2022-08-07T09:06:46;102381.72;;;22.72;46.55
58534;BME280;44109;52.398;7.024;2022-08-07T09:09:34;102379.75;;;21.95;44.71
58534;BME280;44109;52.398;7.024;2022-08-07T09:12:17;102375.53;;;22.91;44.73
58534;BME280;44109;52.398;7.024;2022-08-07T09:15:13;102380.09;;;23.64;45.31
58534;BME280;44109;52.398;7.024;2022-08-07T09:18:17;102381.66;;;23.69;43.38
58534;BME280;44109;52.398;7.024;2022-08-07T09:20:58;102382.97;;;23.16;44.57
58534;BME280;44109;52.398;7.024;2022-08-07T09:23:47;102380.38;;;22.94;45.09
58534;BME280;44109;52.398;7.024;2022-08-07T09:26:27;102384.56;;;22.72;45.10
58534;BME280;44109;52.398;7.024;2022-08-07T09:29:10;102370.03;;;21.96;46.38
58534;BME280;44109;52.398;7.024;2022-08-07T09:31:53;102374.91;;;21.92;46.97
58534;BME280;44109;52.398;7.024;2022-08-07T09:34:35;102365.13;;;22.18;45.52
58534;BME280;44109;52.398;7.024;2022-08-07T09:37:20;102366.31;;;22.21;48.31
58534;BME280;44109;52.398;7.024;2022-08-07T09:40:02;102363.22;;;21.94;46.67
58534;BME280;44109;52.398;7.024;2022-08-07T09:42:45;102369.38;;;21.67;48.37
58534;BME280;44109;52.398;7.024;2022-08-07T09:45:25;102362.56;;;22.38;46.66
58534;BME280;44109;52.398;7.024;2022-08-07T09:48:11;102357.44;;;22.78;46.65
58534;BME280;44109;52.398;7.024;2022-08-07T09:51:01;102353.69;;;22.88;44.13
58534;BME280;44109;52.398;7.024;2022-08-07T09:53:41;102353.78;;;22.81;43.86
58534;BME280;44109;52.398;7.024;2022-08-07T09:56:33;102352.03;;;22.42;45.07
58534;BME280;44109;52.398;7.024;2022-08-07T09:59:45;102347.94;;;22.50;45.06
58534;BME280;44109;52.398;7.024;2022-08-07T10:02:41;102345.75;;;22.17;45.28
58534;BME280;44109;52.398;7.024;2022-08-07T10:05:50;102340.78;;;22.87;45.06
58534;BME280;44109;52.398;7.024;2022-08-07T10:08:57;102330.72;;;22.79;43.48
58534;BME280;44109;52.398;7.024;2022-08-07T10:11:43;102330.59;;;22.48;45.49
58534;BME280;44109;52.398;7.024;2022-08-07T10:14:50;102329.72;;;22.59;44.00
58534;BME280;44109;52.398;7.024;2022-08-07T10:17:50;102322.53;;;22.43;43.83
58534;BME280;44109;52.398;7.024;2022-08-07T10:20:38;102320.19;;;22.83;44.58
58534;BME280;44109;52.398;7.024;2022-08-07T10:23:38;102320.22;;;22.31;44.69
58534;BME280;44109;52.398;7.024;2022-08-07T10:26:35;102320.19;;;22.83;42.48
58534;BME280;44109;52.398;7.024;2022-08-07T10:29:24;102322.84;;;23.04;43.65
58534;BME280;44109;52.398;7.024;2022-08-07T10:32:29;102317.63;;;23.37;41.58
58534;BME280;44109;52.398;7.024;2022-08-07T10:35:12;102314.03;;;22.99;44.63
58534;BME280;44109;52.398;7.024;2022-08-07T10:38:01;102298.34;;;22.39;44.52
58534;BME280;44109;52.398;7.024;2022-08-07T10:40:47;102314.69;;;23.10;44.57
58534;BME280;44109;52.398;7.024;2022-08-07T10:43:28;102310.56;;;22.77;43.93
58534;BME280;44109;52.398;7.024;2022-08-07T10:46:06;102309.31;;;22.29;43.54
58534;BME280;44109;52.398;7.024;2022-08-07T10:48:42;102312.66;;;22.66;43.55
58534;BME280;44109;52.398;7.024;2022-08-07T10:51:28;102309.78;;;22.73;43.43
58534;BME280;44109;52.398;7.024;2022-08-07T10:54:09;102311.81;;;23.17;41.15
58534;BME280;44109;52.398;7.024;2022-08-07T10:56:53;102309.81;;;22.69;43.13
58534;BME280;44109;52.398;7.024;2022-08-07T10:59:37;102304.78;;;22.91;42.29
58534;BME280;44109;52.398;7.024;2022-08-07T11:02:17;102296.41;;;22.25;42.98
58534;BME280;44109;52.398;7.024;2022-08-07T11:05:10;102290.59;;;22.46;44.58
58534;BME280;44109;52.398;7.024;2022-08-07T11:07:58;102286.91;;;22.98;43.65
58534;BME280;44109;52.398;7.024;2022-08-07T11:10:38;102281.59;;;23.41;43.66
58534;BME280;44109;52.398;7.024;2022-08-07T11:13:15;102271.06;;;23.42;42.81
58534;BME280;44109;52.398;7.024;2022-08-07T11:15:51;102276.28;;;23.43;41.18
58534;BME280;44109;52.398;7.024;2022-08-07T11:18:29;102268.44;;;23.58;42.25
58534;BME280;44109;52.398;7.024;2022-08-07T11:21:05;102279.25;;;23.97;42.01
58534;BME280;44109;52.398;7.024;2022-08-07T11:23:45;102268.56;;;24.09;42.08
58534;BME280;44109;52.398;7.024;2022-08-07T11:26:24;102263.84;;;23.71;42.55
58534;BME280;44109;52.398;7.024;2022-08-07T11:29:02;102267.06;;;24.00;42.59
58534;BME280;44109;52.398;7.024;2022-08-07T11:31:38;102258.59;;;24.24;40.30
58534;BME280;44109;52.398;7.024;2022-08-07T11:34:18;102261.56;;;23.90;40.71
58534;BME280;44109;52.398;7.024;2022-08-07T11:36:58;102261.38;;;24.00;40.39
58534;BME280;44109;52.398;7.024;2022-08-07T11:39:51;102256.47;;;24.04;40.16
58534;BME280;44109;52.398;7.024;2022-08-07T11:42:33;102247.53;;;24.57;40.76
58534;BME280;44109;52.398;7.024;2022-08-07T11:45:19;102241.47;;;24.78;42.31
58534;BME280;44109;52.398;7.024;2022-08-07T11:48:15;102251.06;;;24.41;39.68
58534;BME280;44109;52.398;7.024;2022-08-07T11:51:01;102258.53;;;24.27;40.96
58534;BME280;44109;52.398;7.024;2022-08-07T11:53:56;102253.13;;;24.10;40.69
58534;BME280;44109;52.398;7.024;2022-08-07T11:56:46;102247.56;;;24.02;39.68
58534;BME280;44109;52.398;7.024;2022-08-07T11:59:39;102252.88;;;24.00;39.19
58534;BME280;44109;52.398;7.024;2022-08-07T12:02:32;102243.66;;;24.20;39.07
58534;BME280;44109;52.398;7.024;2022-08-07T12:05:15;102241.53;;;23.73;39.17
58534;BME280;44109;52.398;7.024;2022-08-07T12:07:52;102244.59;;;23.86;39.57
58534;BME280;44109;52.398;7.024;2022-08-07T12:10:32;102232.78;;;23.91;40.65
58534;BME280;44109;52.398;7.024;2022-08-07T12:13:18;102242.59;;;23.52;39.50
58534;BME280;44109;52.398;7.024;2022-08-07T12:15:53;102240.19;;;23.51;38.83
58534;BME280;44109;52.398;7.024;2022-08-07T12:18:33;102238.44;;;23.61;39.44
58534;BME280;44109;52.398;7.024;2022-08-07T12:21:19;102245.91;;;23.78;38.13
58534;BME280;44109;52.398;7.024;2022-08-07T12:23:58;102233.22;;;23.90;38.15
58534;BME280;44109;52.398;7.024;2022-08-07T12:26:38;102228.66;;;23.96;38.71
58534;BME280;44109;52.398;7.024;2022-08-07T12:29:14;102225.19;;;23.85;38.84
58534;BME280;44109;52.398;7.024;2022-08-07T12:31:49;102224.44;;;24.31;39.98
58534;BME280;44109;52.398;7.024;2022-08-07T12:34:29;102214.75;;;24.28;38.16
58534;BME280;44109;52.398;7.024;2022-08-07T12:37:01;102215.22;;;24.50;38.28
58534;BME280;44109;52.398;7.024;2022-08-07T12:39:30;102212.31;;;23.80;38.36
58534;BME280;44109;52.398;7.024;2022-08-07T12:42:01;102215.44;;;24.36;38.79
58534;BME280;44109;52.398;7.024;2022-08-07T12:44:33;102201.13;;;24.20;37.95
58534;BME280;44109;52.398;7.024;2022-08-07T12:47:09;102202.00;;;24.64;37.83
58534;BME280;44109;52.398;7.024;2022-08-07T12:49:51;102197.03;;;25.11;36.56
58534;BME280;44109;52.398;7.024;2022-08-07T12:52:35;102199.34;;;25.16;35.48
58534;BME280;44109;52.398;7.024;2022-08-07T12:55:07;102200.81;;;25.24;36.35
58534;BME280;44109;52.398;7.024;2022-08-07T12:57:41;102200.75;;;24.18;35.07
58534;BME280;44109;52.398;7.024;2022-08-07T13:00:11;102202.72;;;23.70;38.25
58534;BME280;44109;52.398;7.024;2022-08-07T13:02:57;102200.75;;;24.18;36.58
58534;BME280;44109;52.398;7.024;2022-08-07T13:05:44;102192.88;;;24.29;35.93
58534;BME280;44109;52.398;7.024;2022-08-07T13:08:35;102201.75;;;24.08;36.42
58534;BME280;44109;52.398;7.024;2022-08-07T13:11:28;102194.00;;;24.78;36.40
58534;BME280;44109;52.398;7.024;2022-08-07T13:14:09;102189.13;;;24.59;36.92
58534;BME280;44109;52.398;7.024;2022-08-07T13:16:53;102186.16;;;24.86;36.93
58534;BME280;44109;52.398;7.024;2022-08-07T13:19:32;102185.38;;;24.42;36.81
58534;BME280;44109;52.398;7.024;2022-08-07T13:22:12;102190.69;;;24.40;36.08
58534;BME280;44109;52.398;7.024;2022-08-07T13:24:49;102185.47;;;24.35;34.68
58534;BME280;44109;52.398;7.024;2022-08-07T13:27:25;102172.91;;;24.60;34.95
58534;BME280;44109;52.398;7.024;2022-08-07T13:30:00;102179.03;;;24.78;36.10
58534;BME280;44109;52.398;7.024;2022-08-07T13:32:48;102176.91;;;25.02;35.21